createdAt,value
2018-12-19T00:00:09.633Z,27.37
2018-12-19T00:00:54.093Z,27.40
2018-12-19T00:01:33.237Z,27.40
2018-12-19T00:02:21.499Z,27.41
2018-12-19T00:03:02.454Z,27.44
2018-12-19T00:03:39.631Z,27.45
2018-12-19T00:04:24.572Z,27.47
2018-12-19T00:05:10.433Z,27.48
2018-12-19T00:05:47.316Z,27.50
2018-12-19T00:06:25.132Z,27.51
2018-12-19T00:07:01.996Z,27.53
2018-12-19T00:07:38.994Z,27.54
2018-12-19T00:08:16.697Z,27.55
2018-12-19T00:08:54.041Z,27.58
2018-12-19T00:09:32.764Z,27.59
2018-12-19T00:10:10.405Z,27.60
2018-12-19T00:10:56.257Z,27.62
2018-12-19T00:11:33.899Z,27.63
2018-12-19T00:12:10.797Z,27.66
2018-12-19T00:12:47.671Z,27.68
2018-12-19T00:13:24.584Z,27.70
2018-12-19T00:14:08.622Z,27.73
2018-12-19T00:14:51.645Z,27.76
2018-12-19T00:15:30.120Z,27.78
2018-12-19T00:16:08.058Z,27.78
2018-12-19T00:16:47.245Z,27.81
2018-12-19T00:17:25.681Z,27.83
2018-12-19T00:18:02.712Z,27.85
2018-12-19T00:18:50.382Z,27.87
2018-12-19T00:20:22.624Z,27.95
2018-12-19T00:21:00.706Z,27.97
2018-12-19T00:21:38.260Z,28.00
2018-12-19T00:22:15.710Z,28.02
2018-12-19T00:22:53.376Z,28.05
2018-12-19T00:23:31.419Z,28.08
2018-12-19T00:24:08.585Z,28.09
2018-12-19T00:24:46.040Z,28.11
2018-12-19T00:25:23.434Z,28.14
2018-12-19T00:26:00.442Z,28.16
2018-12-19T00:26:38.348Z,28.19
2018-12-19T00:27:21.072Z,28.21
2018-12-19T00:27:58.747Z,28.22
2018-12-19T00:28:36.792Z,28.24
2018-12-19T00:29:14.025Z,28.25
2018-12-19T00:29:54.208Z,28.27
2018-12-19T00:30:31.489Z,28.28
2018-12-19T00:31:14.101Z,28.30
2018-12-19T00:31:50.934Z,28.30
2018-12-19T00:32:27.810Z,28.31
2018-12-19T00:33:09.816Z,28.31
2018-12-19T00:34:32.552Z,28.33
2018-12-19T00:35:09.525Z,28.35
2018-12-19T00:35:51.900Z,28.36
2018-12-19T00:36:28.733Z,28.39
2018-12-19T00:37:06.761Z,28.41
2018-12-19T00:37:45.148Z,28.41
2018-12-19T00:38:22.037Z,28.44
2018-12-19T00:38:59.976Z,28.44
2018-12-19T00:41:09.004Z,28.48
2018-12-19T00:41:45.838Z,28.48
2018-12-19T00:42:28.232Z,28.49
2018-12-19T00:43:05.029Z,28.50
2018-12-19T00:43:48.325Z,28.52
2018-12-19T00:44:25.397Z,28.54
2018-12-19T00:45:04.450Z,28.56
2018-12-19T00:45:41.971Z,28.59
2018-12-19T00:46:22.674Z,28.62
2018-12-19T00:47:43.857Z,28.68
2018-12-19T00:48:21.688Z,28.70
2018-12-19T00:49:09.845Z,28.72
2018-12-19T00:49:46.936Z,28.74
2018-12-19T00:50:23.840Z,28.79
2018-12-19T00:51:01.308Z,28.84
2018-12-19T00:51:38.562Z,28.86
2018-12-19T00:52:15.775Z,28.91
2018-12-19T00:52:56.753Z,28.98
2018-12-19T00:54:16.316Z,29.08
2018-12-19T00:54:53.874Z,29.08
2018-12-19T00:55:34.151Z,29.07
2018-12-19T00:56:11.697Z,29.08
2018-12-19T00:56:49.157Z,29.11
2018-12-19T00:57:29.189Z,29.16
2018-12-19T00:58:06.795Z,29.22
2018-12-19T00:58:45.348Z,29.27
2018-12-19T00:59:22.513Z,29.29
2018-12-19T01:00:00.783Z,29.36
2018-12-19T01:00:40.445Z,29.44
2018-12-19T01:01:17.930Z,29.53
2018-12-19T01:01:59.183Z,29.60
2018-12-19T01:02:36.841Z,29.66
2018-12-19T01:03:20.040Z,29.72
2018-12-19T01:04:01.664Z,29.78
2018-12-19T01:04:39.893Z,29.82
2018-12-19T01:05:18.376Z,29.87
2018-12-19T01:05:55.696Z,29.92
2018-12-19T01:06:33.321Z,29.96
2018-12-19T01:07:10.136Z,30.03
2018-12-19T01:07:47.712Z,30.08
2018-12-19T01:08:25.892Z,30.11
2018-12-19T01:09:03.145Z,30.16
2018-12-19T01:09:41.513Z,30.12
2018-12-19T01:10:18.492Z,30.22
2018-12-19T01:10:55.878Z,30.20
2018-12-19T01:11:33.153Z,30.14
2018-12-19T01:12:10.936Z,30.09
2018-12-19T01:12:48.541Z,30.02
2018-12-19T01:13:28.156Z,30.02
2018-12-19T01:14:05.782Z,29.97
2018-12-19T01:14:43.595Z,29.94
2018-12-19T01:15:25.316Z,29.90
2018-12-19T01:16:02.468Z,29.86
2018-12-19T01:16:39.639Z,29.83
2018-12-19T01:17:20.263Z,29.79
2018-12-19T01:17:57.919Z,29.75
2018-12-19T01:18:35.581Z,29.67
2018-12-19T01:19:13.137Z,29.68
2018-12-19T01:19:50.303Z,29.64
2018-12-19T01:20:29.253Z,29.61
2018-12-19T01:21:06.757Z,29.57
2018-12-19T01:21:44.271Z,29.54
2018-12-19T01:22:22.011Z,29.47
2018-12-19T01:23:02.192Z,29.45
2018-12-19T01:23:39.709Z,29.41
2018-12-19T01:24:17.653Z,29.38
2018-12-19T01:24:58.210Z,29.35
2018-12-19T01:25:35.579Z,29.33
2018-12-19T01:26:13.633Z,29.29
2018-12-19T01:26:51.103Z,29.25
2018-12-19T01:27:29.769Z,29.23
2018-12-19T01:28:06.905Z,29.19
2018-12-19T01:28:44.801Z,29.15
2018-12-19T01:29:22.739Z,29.12
2018-12-19T01:29:59.657Z,29.09
2018-12-19T01:30:40.562Z,29.07
2018-12-19T01:31:19.353Z,29.01
2018-12-19T01:31:56.752Z,28.92
2018-12-19T01:32:38.159Z,28.80
2018-12-19T01:33:15.551Z,28.75
2018-12-19T01:33:53.249Z,28.69
2018-12-19T01:34:33.121Z,28.66
2018-12-19T01:35:13.015Z,28.61
2018-12-19T01:35:50.259Z,28.55
2018-12-19T01:36:27.966Z,28.54
2018-12-19T01:37:05.375Z,28.50
2018-12-19T01:37:47.931Z,28.47
2018-12-19T01:38:24.957Z,28.42
2018-12-19T01:39:02.252Z,28.39
2018-12-19T01:39:43.248Z,28.36
2018-12-19T01:40:20.354Z,28.31
2018-12-19T01:40:57.850Z,28.28
2018-12-19T01:41:35.406Z,28.23
2018-12-19T01:42:12.785Z,28.19
2018-12-19T01:42:50.253Z,28.11
2018-12-19T01:43:27.784Z,28.07
2018-12-19T01:44:05.298Z,28.01
2018-12-19T01:44:42.353Z,27.98
2018-12-19T01:45:20.385Z,27.94
2018-12-19T01:45:58.044Z,27.90
2018-12-19T01:46:35.641Z,27.84
2018-12-19T01:47:12.788Z,27.79
2018-12-19T01:47:50.536Z,27.76
2018-12-19T01:48:27.636Z,27.70
2018-12-19T01:49:05.024Z,27.65
2018-12-19T01:49:42.649Z,27.62
2018-12-19T01:51:03.646Z,27.56
2018-12-19T01:51:41.105Z,27.52
2018-12-19T01:52:19.141Z,27.50
2018-12-19T01:52:57.329Z,27.44
2018-12-19T01:53:36.605Z,27.44
2018-12-19T01:54:14.995Z,27.41
2018-12-19T01:54:52.880Z,27.40
2018-12-19T01:55:37.006Z,27.38
2018-12-19T01:56:15.234Z,27.36
2018-12-19T01:56:52.504Z,27.33
2018-12-19T01:57:32.298Z,27.32
2018-12-19T01:58:11.049Z,27.31
2018-12-19T01:58:48.796Z,27.29
2018-12-19T01:59:25.827Z,27.25
2018-12-19T02:00:02.866Z,27.19
2018-12-19T02:00:40.851Z,27.18
2018-12-19T02:01:18.565Z,27.19
2018-12-19T02:01:56.376Z,27.13
2018-12-19T02:02:35.384Z,27.13
2018-12-19T02:03:12.292Z,27.10
2018-12-19T02:03:51.485Z,27.09
2018-12-19T02:04:29.550Z,27.06
2018-12-19T02:05:10.200Z,27.03
2018-12-19T02:05:47.612Z,27.03
2018-12-19T02:06:25.129Z,27.02
2018-12-19T02:07:02.731Z,27.00
2018-12-19T02:07:41.011Z,26.97
2018-12-19T02:08:18.116Z,26.98
2018-12-19T02:08:58.797Z,26.97
2018-12-19T02:09:36.379Z,26.96
2018-12-19T02:10:13.330Z,26.97
2018-12-19T02:10:55.349Z,26.97
2018-12-19T02:11:42.045Z,26.97
2018-12-19T02:12:21.856Z,26.97
2018-12-19T02:12:58.925Z,26.98
2018-12-19T02:14:32.317Z,26.99
2018-12-19T02:15:10.262Z,26.97
2018-12-19T02:15:51.162Z,26.97
2018-12-19T02:16:28.173Z,26.96
2018-12-19T02:17:06.036Z,26.95
2018-12-19T02:17:47.127Z,26.97
2018-12-19T02:18:24.118Z,26.98
2018-12-19T02:19:01.025Z,26.99
2018-12-19T02:19:37.923Z,26.96
2018-12-19T02:20:15.039Z,26.99
2018-12-19T02:20:57.941Z,27.00
2018-12-19T02:21:36.085Z,26.99
2018-12-19T02:22:12.981Z,27.01
2018-12-19T02:22:49.858Z,27.01
2018-12-19T02:23:31.809Z,27.01
2018-12-19T02:24:08.527Z,27.04
2018-12-19T02:24:46.312Z,27.04
2018-12-19T02:25:25.024Z,27.04
2018-12-19T02:26:02.904Z,27.06
2018-12-19T02:26:39.759Z,27.08
2018-12-19T02:27:17.957Z,27.09
2018-12-19T02:28:38.854Z,27.11
2018-12-19T02:29:17.857Z,27.14
2018-12-19T02:29:56.499Z,27.15
2018-12-19T02:30:34.570Z,27.17
2018-12-19T02:31:12.504Z,27.19
2018-12-19T02:31:50.155Z,27.23
2018-12-19T02:32:27.257Z,27.24
2018-12-19T02:33:04.304Z,27.28
2018-12-19T02:33:41.661Z,27.31
2018-12-19T02:34:20.349Z,27.33
2018-12-19T02:34:57.376Z,27.37
2018-12-19T02:35:41.561Z,27.43
2018-12-19T02:36:18.444Z,27.44
2018-12-19T02:36:55.465Z,27.47
2018-12-19T02:37:37.054Z,27.50
2018-12-19T02:38:20.530Z,27.55
2018-12-19T02:38:57.338Z,27.66
2018-12-19T02:39:36.285Z,27.69
2018-12-19T02:40:18.693Z,27.71
2018-12-19T02:40:55.636Z,27.74
2018-12-19T02:41:32.620Z,27.79
2018-12-19T02:42:19.491Z,27.85
2018-12-19T02:43:02.074Z,27.96
2018-12-19T02:43:41.816Z,28.04
2018-12-19T02:44:18.738Z,28.04
2018-12-19T02:44:57.333Z,28.06
2018-12-19T02:45:34.354Z,28.06
2018-12-19T02:46:14.233Z,28.07
2018-12-19T02:47:01.265Z,28.09
2018-12-19T02:47:38.163Z,28.09
2018-12-19T02:48:15.112Z,28.12
2018-12-19T02:48:53.128Z,28.12
2018-12-19T02:49:30.128Z,28.13
2018-12-19T02:50:07.691Z,28.14
2018-12-19T02:50:48.880Z,28.14
2018-12-19T02:51:28.811Z,28.14
2018-12-19T02:52:07.357Z,28.15
2018-12-19T02:52:45.020Z,28.17
2018-12-19T02:53:21.914Z,28.17
2018-12-19T02:53:58.971Z,28.18
2018-12-19T02:54:35.842Z,28.18
2018-12-19T02:55:13.965Z,28.19
2018-12-19T02:55:50.880Z,28.19
2018-12-19T02:56:36.916Z,28.20
2018-12-19T02:57:19.685Z,28.23
2018-12-19T02:57:56.655Z,28.24
2018-12-19T02:58:34.842Z,28.27
2018-12-19T02:59:11.632Z,28.29
2018-12-19T02:59:50.287Z,28.31
2018-12-19T03:00:28.112Z,28.32
2018-12-19T03:01:52.451Z,28.34
2018-12-19T03:02:30.104Z,28.36
2018-12-19T03:03:11.567Z,28.39
2018-12-19T03:03:50.395Z,28.41
2018-12-19T03:04:27.282Z,28.42
2018-12-19T03:05:06.084Z,28.46
2018-12-19T03:05:44.160Z,28.50
2018-12-19T03:06:20.938Z,28.52
2018-12-19T03:06:57.751Z,28.53
2018-12-19T03:07:35.668Z,28.54
2018-12-19T03:08:14.133Z,28.53
2018-12-19T03:08:52.285Z,28.53
2018-12-19T03:09:34.164Z,28.55
2018-12-19T03:10:11.291Z,28.55
2018-12-19T03:10:48.606Z,28.58
2018-12-19T03:11:25.449Z,28.58
2018-12-19T03:12:02.288Z,28.56
2018-12-19T03:12:42.572Z,28.57
2018-12-19T03:13:19.547Z,28.58
2018-12-19T03:13:59.181Z,28.59
2018-12-19T03:14:44.381Z,28.60
2018-12-19T03:15:21.267Z,28.61
2018-12-19T03:15:58.211Z,28.64
2018-12-19T03:16:36.157Z,28.64
2018-12-19T03:17:14.244Z,28.65
2018-12-19T03:17:57.330Z,28.67
2018-12-19T03:18:35.377Z,28.67
2018-12-19T03:19:13.427Z,28.66
2018-12-19T03:19:50.360Z,28.66
2018-12-19T03:20:27.539Z,28.67
2018-12-19T03:21:04.388Z,28.65
2018-12-19T03:21:42.019Z,28.65
2018-12-19T03:22:19.128Z,28.60
2018-12-19T03:22:56.150Z,28.59
2018-12-19T03:24:19.686Z,28.56
2018-12-19T03:24:56.596Z,28.50
2018-12-19T03:25:34.440Z,28.50
2018-12-19T03:26:11.289Z,28.49
2018-12-19T03:26:50.445Z,28.48
2018-12-19T03:27:28.519Z,28.48
2018-12-19T03:28:06.405Z,28.47
2018-12-19T03:28:43.872Z,28.48
2018-12-19T03:30:03.761Z,28.48
2018-12-19T03:30:40.837Z,28.50
2018-12-19T03:32:56.619Z,28.57
2018-12-19T03:33:33.517Z,28.60
2018-12-19T03:34:12.212Z,28.63
2018-12-19T03:34:51.003Z,28.68
2018-12-19T03:35:27.937Z,28.73
2018-12-19T03:36:12.663Z,28.79
2018-12-19T03:37:36.664Z,28.99
2018-12-19T03:38:18.624Z,29.02
2018-12-19T03:38:56.831Z,29.01
2018-12-19T03:39:39.225Z,29.00
2018-12-19T03:40:16.444Z,28.98
2018-12-19T03:40:53.468Z,28.99
2018-12-19T03:41:31.319Z,28.98
2018-12-19T03:42:08.971Z,28.97
2018-12-19T03:42:46.615Z,28.96
2018-12-19T03:43:25.543Z,28.97
2018-12-19T03:44:03.413Z,28.95
2018-12-19T03:44:40.999Z,28.96
2018-12-19T03:45:23.346Z,28.99
2018-12-19T03:46:00.245Z,28.97
2018-12-19T03:46:37.214Z,28.96
2018-12-19T03:47:14.143Z,29.00
2018-12-19T03:47:51.631Z,28.99
2018-12-19T03:48:33.477Z,29.01
2018-12-19T03:49:13.639Z,29.01
2018-12-19T03:49:57.955Z,29.00
2018-12-19T03:50:34.983Z,28.99
2018-12-19T03:51:17.946Z,29.00
2018-12-19T03:51:54.736Z,29.02
2018-12-19T03:52:32.777Z,29.03
2018-12-19T03:53:09.601Z,29.04
2018-12-19T03:53:47.975Z,29.04
2018-12-19T03:54:25.251Z,29.04
2018-12-19T03:55:03.403Z,29.05
2018-12-19T03:55:41.721Z,29.05
2018-12-19T03:56:19.248Z,29.06
2018-12-19T03:56:56.496Z,29.07
2018-12-19T03:57:35.319Z,29.08
2018-12-19T03:58:12.751Z,29.09
2018-12-19T03:58:50.258Z,29.09
2018-12-19T03:59:29.916Z,29.10
2018-12-19T04:00:07.803Z,29.11
2018-12-19T04:00:45.398Z,29.13
2018-12-19T04:01:22.865Z,29.16
2018-12-19T04:02:00.460Z,29.18
2018-12-19T04:02:38.043Z,29.20
2018-12-19T04:03:15.469Z,29.21
2018-12-19T04:03:55.033Z,29.22
2018-12-19T04:04:40.950Z,29.22
2018-12-19T04:05:21.369Z,29.24
2018-12-19T04:05:58.206Z,29.24
2018-12-19T04:06:42.189Z,29.26
2018-12-19T04:07:19.433Z,29.27
2018-12-19T04:08:02.151Z,29.29
2018-12-19T04:08:47.604Z,29.30
2018-12-19T04:09:24.463Z,29.33
2018-12-19T04:10:01.661Z,29.34
2018-12-19T04:10:39.591Z,29.37
2018-12-19T04:11:16.454Z,29.38
2018-12-19T04:11:55.670Z,29.39
2018-12-19T04:12:32.724Z,29.38
2018-12-19T04:13:09.613Z,29.37
2018-12-19T04:13:51.765Z,29.36
2018-12-19T04:14:29.661Z,29.36
2018-12-19T04:15:07.797Z,29.35
2018-12-19T04:15:48.856Z,29.35
2018-12-19T04:16:25.835Z,29.34
2018-12-19T04:17:02.671Z,29.34
2018-12-19T04:17:48.766Z,29.35
2018-12-19T04:18:32.753Z,29.38
2018-12-19T04:19:09.676Z,29.40
2018-12-19T04:19:49.415Z,29.43
2018-12-19T04:20:28.163Z,29.46
2018-12-19T04:21:08.082Z,29.52
2018-12-19T04:21:46.855Z,29.55
2018-12-19T04:22:26.617Z,29.59
2018-12-19T04:23:04.766Z,29.63
2018-12-19T04:23:42.346Z,29.67
2018-12-19T04:24:19.143Z,29.73
2018-12-19T04:24:56.190Z,29.76
2018-12-19T04:25:38.574Z,29.81
2018-12-19T04:26:19.469Z,29.85
2018-12-19T04:26:56.458Z,29.88
2018-12-19T04:27:33.313Z,29.94
2018-12-19T04:28:10.284Z,29.97
2018-12-19T04:28:48.148Z,30.02
2018-12-19T04:29:28.523Z,30.02
2018-12-19T04:30:54.905Z,30.07
2018-12-19T04:31:32.734Z,30.08
2018-12-19T04:32:09.878Z,30.09
2018-12-19T04:32:47.426Z,30.11
2018-12-19T04:33:28.900Z,30.06
2018-12-19T04:34:13.261Z,30.15
2018-12-19T04:34:57.314Z,30.16
2018-12-19T04:35:34.424Z,30.18
2018-12-19T04:36:12.559Z,30.22
2018-12-19T04:36:50.676Z,30.23
2018-12-19T04:37:32.503Z,30.29
2018-12-19T04:38:10.541Z,30.33
2018-12-19T04:38:48.547Z,30.36
2018-12-19T04:39:25.489Z,30.38
2018-12-19T04:40:05.564Z,30.41
2018-12-19T04:40:42.649Z,30.48
2018-12-19T04:41:20.561Z,30.55
2018-12-19T04:42:02.267Z,30.58
2018-12-19T04:42:41.422Z,30.54
2018-12-19T04:43:19.525Z,30.56
2018-12-19T04:43:57.610Z,30.54
2018-12-19T04:44:41.326Z,30.57
2018-12-19T04:45:18.325Z,30.62
2018-12-19T04:45:57.440Z,30.62
2018-12-19T04:46:34.451Z,30.67
2018-12-19T04:47:11.532Z,30.72
2018-12-19T04:47:50.099Z,30.78
2018-12-19T04:48:29.089Z,30.84
2018-12-19T04:49:05.902Z,30.90
2018-12-19T04:49:42.740Z,30.96
2018-12-19T04:50:29.487Z,30.97
2018-12-19T04:51:06.448Z,30.97
2018-12-19T04:51:43.556Z,30.95
2018-12-19T04:52:22.193Z,30.89
2018-12-19T04:53:01.555Z,30.90
2018-12-19T04:53:38.565Z,30.84
2018-12-19T04:54:15.440Z,30.83
2018-12-19T04:54:53.101Z,30.76
2018-12-19T04:55:31.908Z,30.75
2018-12-19T04:56:18.336Z,30.73
2018-12-19T04:57:00.423Z,30.71
2018-12-19T04:57:37.400Z,30.70
2018-12-19T04:58:14.424Z,30.64
2018-12-19T04:58:57.260Z,30.66
2018-12-19T04:59:34.096Z,30.67
2018-12-19T05:00:11.121Z,30.65
2018-12-19T05:00:58.404Z,30.66
2018-12-19T05:01:35.542Z,30.67
2018-12-19T05:05:23.535Z,30.76
2018-12-19T05:06:01.427Z,30.77
2018-12-19T05:06:40.696Z,30.77
2018-12-19T05:07:18.721Z,30.78
2018-12-19T05:07:57.247Z,30.78
2018-12-19T05:08:36.444Z,30.78
2018-12-19T05:09:13.307Z,30.77
2018-12-19T05:09:50.519Z,30.79
2018-12-19T05:10:27.521Z,30.80
2018-12-19T05:11:06.697Z,30.78
2018-12-19T05:11:43.598Z,30.80
2018-12-19T05:12:21.386Z,30.82
2018-12-19T05:12:58.169Z,30.86
2018-12-19T05:13:35.177Z,30.88
2018-12-19T05:17:29.168Z,30.91
2018-12-19T05:18:06.908Z,30.94
2018-12-19T05:18:47.493Z,31.00
2018-12-19T05:19:24.446Z,31.00
2018-12-19T05:20:01.438Z,31.02
2018-12-19T05:20:40.412Z,31.01
2018-12-19T05:21:19.430Z,31.07
2018-12-19T05:21:56.476Z,31.14
2018-12-19T05:22:41.369Z,31.15
2018-12-19T05:23:18.403Z,31.19
2018-12-19T05:23:55.272Z,31.18
2018-12-19T05:24:39.249Z,31.17
2018-12-19T05:25:17.056Z,31.17
2018-12-19T05:25:55.079Z,31.21
2018-12-19T05:26:34.052Z,31.24
2018-12-19T05:27:11.939Z,31.24
2018-12-19T05:27:48.977Z,31.25
2018-12-19T05:28:25.865Z,31.25
2018-12-19T05:29:03.149Z,31.27
2018-12-19T05:29:41.151Z,31.30
2018-12-19T05:30:19.953Z,31.33
2018-12-19T05:30:57.014Z,31.35
2018-12-19T05:31:34.792Z,31.37
2018-12-19T05:32:17.449Z,31.36
2018-12-19T05:32:55.346Z,31.32
2018-12-19T05:33:33.159Z,31.32
2018-12-19T05:34:11.141Z,31.31
2018-12-19T05:34:48.154Z,31.32
2018-12-19T05:35:24.980Z,31.35
2018-12-19T05:36:03.031Z,31.38
2018-12-19T05:36:39.910Z,31.36
2018-12-19T05:37:18.676Z,31.34
2018-12-19T05:37:56.824Z,31.41
2018-12-19T05:38:34.464Z,31.42
2018-12-19T05:39:11.389Z,31.38
2018-12-19T05:39:54.297Z,31.37
2018-12-19T05:40:31.232Z,31.31
2018-12-19T05:41:09.951Z,31.30
2018-12-19T05:41:47.657Z,31.26
2018-12-19T05:42:33.112Z,31.22
2018-12-19T05:43:09.970Z,31.28
2018-12-19T05:43:47.993Z,31.32
2018-12-19T05:44:26.936Z,31.33
2018-12-19T05:45:04.713Z,31.44
2018-12-19T05:45:42.838Z,31.43
2018-12-19T05:46:20.983Z,31.39
2018-12-19T05:46:59.758Z,31.41
2018-12-19T05:47:41.481Z,31.49
2018-12-19T05:48:24.173Z,31.51
2018-12-19T05:49:01.073Z,31.47
2018-12-19T05:49:39.218Z,31.42
2018-12-19T05:50:18.697Z,31.34
2018-12-19T05:50:57.551Z,31.35
2018-12-19T05:51:34.629Z,31.39
2018-12-19T05:52:12.625Z,31.41
2018-12-19T05:52:54.292Z,31.39
2018-12-19T05:53:31.056Z,31.35
2018-12-19T05:54:09.637Z,31.33
2018-12-19T05:54:47.638Z,31.31
2018-12-19T05:55:24.654Z,31.28
2018-12-19T05:56:02.515Z,31.36
2018-12-19T05:56:40.738Z,31.38
2018-12-19T05:57:23.831Z,31.35
2018-12-19T05:58:00.620Z,31.41
2018-12-19T05:58:42.608Z,31.41
2018-12-19T05:59:19.409Z,31.50
2018-12-19T05:59:57.108Z,31.50
2018-12-19T06:00:34.139Z,31.53
2018-12-19T06:01:11.144Z,31.54
2018-12-19T06:01:48.933Z,31.53
2018-12-19T06:02:26.446Z,31.56
2018-12-19T06:03:03.808Z,31.56
2018-12-19T06:03:41.855Z,31.52
2018-12-19T06:04:20.710Z,31.53
2018-12-19T06:05:05.170Z,31.54
2018-12-19T06:05:42.976Z,31.54
2018-12-19T06:06:19.863Z,31.55
2018-12-19T06:07:00.726Z,31.44
2018-12-19T06:07:38.921Z,31.52
2018-12-19T06:08:16.838Z,31.54
2018-12-19T06:08:53.747Z,31.56
2018-12-19T06:09:32.553Z,31.59
2018-12-19T06:10:11.474Z,31.63
2018-12-19T06:10:49.573Z,31.64
2018-12-19T06:11:27.480Z,31.67
2018-12-19T06:12:08.037Z,31.66
2018-12-19T06:12:47.349Z,31.69
2018-12-19T06:13:35.289Z,31.73
2018-12-19T06:17:17.601Z,31.76
2018-12-19T06:18:08.824Z,31.73
2018-12-19T06:18:48.943Z,31.78
2018-12-19T06:19:28.172Z,31.79
2018-12-19T06:20:13.280Z,31.74
2018-12-19T06:20:54.420Z,31.71
2018-12-19T06:21:33.456Z,31.71
2018-12-19T06:22:17.529Z,31.73
2018-12-19T06:23:01.044Z,31.76
2018-12-19T06:23:38.740Z,31.77
2018-12-19T06:24:26.127Z,31.75
2018-12-19T06:25:04.175Z,31.74
2018-12-19T06:25:44.032Z,31.67
2018-12-19T06:26:29.232Z,31.70
2018-12-19T06:27:08.754Z,31.70
2018-12-19T06:27:48.990Z,31.67
2018-12-19T06:28:30.312Z,31.70
2018-12-19T06:29:08.101Z,31.71
2018-12-19T06:29:47.072Z,31.71
2018-12-19T06:30:30.378Z,31.71
2018-12-19T06:31:08.780Z,31.69
2018-12-19T06:31:51.383Z,31.70
2018-12-19T06:32:29.156Z,31.71
2018-12-19T06:33:17.600Z,31.73
2018-12-19T06:33:57.626Z,31.73
2018-12-19T06:34:36.448Z,31.75
2018-12-19T06:35:17.529Z,31.73
2018-12-19T06:35:55.491Z,31.68
2018-12-19T06:36:33.308Z,31.67
2018-12-19T06:37:17.690Z,31.66
2018-12-19T06:38:04.259Z,31.63
2018-12-19T06:38:42.207Z,31.64
2018-12-19T06:39:22.675Z,31.66
2018-12-19T06:40:00.683Z,31.66
2018-12-19T06:40:39.912Z,31.61
2018-12-19T06:41:17.650Z,31.63
2018-12-19T06:41:57.997Z,31.68
2018-12-19T06:42:35.785Z,31.68
2018-12-19T06:43:13.599Z,31.71
2018-12-19T06:43:51.379Z,31.74
2018-12-19T06:44:38.821Z,31.74
2018-12-19T06:45:18.084Z,31.75
2018-12-19T06:45:56.021Z,31.76
2018-12-19T06:46:34.478Z,31.78
2018-12-19T06:47:13.728Z,31.76
2018-12-19T06:47:53.878Z,31.79
2018-12-19T06:48:31.766Z,31.80
2018-12-19T06:49:11.886Z,31.79
2018-12-19T06:49:50.211Z,31.76
2018-12-19T06:50:29.428Z,31.78
2018-12-19T06:51:13.297Z,31.75
2018-12-19T06:51:54.168Z,31.75
2018-12-19T06:52:32.509Z,31.75
2018-12-19T06:53:11.713Z,31.76
2018-12-19T06:53:50.869Z,31.75
2018-12-19T06:54:32.072Z,31.78
2018-12-19T06:55:10.050Z,31.80
2018-12-19T06:55:48.533Z,31.82
2018-12-19T06:56:29.311Z,31.81
2018-12-19T06:57:09.653Z,31.78
2018-12-19T06:57:51.626Z,31.75
2018-12-19T06:58:29.734Z,31.79
2018-12-19T06:59:08.969Z,31.77
2018-12-19T06:59:52.157Z,31.77
2018-12-19T07:00:30.280Z,31.79
2018-12-19T07:01:08.350Z,31.80
2018-12-19T07:01:50.524Z,31.80
2018-12-19T07:02:37.948Z,31.81
2018-12-19T07:03:20.154Z,31.81
2018-12-19T07:04:00.485Z,31.82
2018-12-19T07:04:38.575Z,31.82
2018-12-19T07:05:17.905Z,31.82
2018-12-19T07:05:57.565Z,31.82
2018-12-19T07:06:35.414Z,31.76
2018-12-19T07:07:19.242Z,31.76
2018-12-19T07:07:57.334Z,31.78
2018-12-19T07:08:36.112Z,31.79
2018-12-19T07:09:14.246Z,31.75
2018-12-19T07:10:01.478Z,31.78
2018-12-19T07:10:39.554Z,31.78
2018-12-19T07:11:19.376Z,31.79
2018-12-19T07:11:58.181Z,31.78
2018-12-19T07:12:37.809Z,31.79
2018-12-19T07:13:16.004Z,31.74
2018-12-19T07:13:53.844Z,31.71
2018-12-19T07:14:33.959Z,31.73
2018-12-19T07:15:14.251Z,31.73
2018-12-19T07:15:54.909Z,31.72
2018-12-19T07:16:33.688Z,31.71
2018-12-19T07:17:13.161Z,31.67
2018-12-19T07:17:52.126Z,31.67
2018-12-19T07:18:30.177Z,31.68
2018-12-19T07:19:08.408Z,31.69
2018-12-19T07:19:53.827Z,31.70
2018-12-19T07:20:31.980Z,31.70
2018-12-19T07:21:12.089Z,31.69
2018-12-19T07:21:50.060Z,31.71
2018-12-19T07:22:28.108Z,31.65
2018-12-19T07:23:06.473Z,31.70
2018-12-19T07:23:46.064Z,31.69
2018-12-19T07:24:23.951Z,31.68
2018-12-19T07:25:06.149Z,31.66
2018-12-19T07:25:44.241Z,31.60
2018-12-19T07:26:23.224Z,31.57
2018-12-19T07:27:01.852Z,31.60
2018-12-19T07:27:48.807Z,31.60
2018-12-19T07:28:30.679Z,31.62
2018-12-19T07:29:08.665Z,31.61
2018-12-19T07:29:47.636Z,31.64
2018-12-19T07:30:32.735Z,31.64
2018-12-19T07:31:11.440Z,31.64
2018-12-19T07:31:53.442Z,31.66
2018-12-19T07:32:34.550Z,31.68
2018-12-19T07:33:24.132Z,31.67
2018-12-19T07:34:12.306Z,31.69
2018-12-19T07:34:52.084Z,31.71
2018-12-19T07:35:30.071Z,31.69
2018-12-19T07:36:14.244Z,31.72
2018-12-19T07:36:52.915Z,31.71
2018-12-19T07:37:33.716Z,31.69
2018-12-19T07:38:11.659Z,31.68
2018-12-19T07:38:50.283Z,31.65
2018-12-19T07:39:28.132Z,31.65
2018-12-19T07:40:06.297Z,31.65
2018-12-19T07:40:45.765Z,31.65
2018-12-19T07:42:10.470Z,31.64
2018-12-19T07:42:48.203Z,31.60
2018-12-19T07:43:26.182Z,31.61
2018-12-19T07:44:05.161Z,31.55
2018-12-19T07:44:57.784Z,31.55
2018-12-19T07:45:35.973Z,31.51
2018-12-19T07:46:19.692Z,31.49
2018-12-19T07:46:55.956Z,31.47
2018-12-19T07:47:33.840Z,31.47
2018-12-19T07:48:19.241Z,31.45
2018-12-19T07:48:58.753Z,31.44
2018-12-19T07:49:37.635Z,31.41
2018-12-19T07:50:16.495Z,31.37
2018-12-19T07:50:55.477Z,31.34
2018-12-19T07:51:33.382Z,31.34
2018-12-19T07:52:15.741Z,31.26
2018-12-19T07:52:57.777Z,31.33
2018-12-19T07:53:38.442Z,31.34
2018-12-19T07:54:19.446Z,31.35
2018-12-19T07:55:01.357Z,31.35
2018-12-19T07:55:43.618Z,31.33
2018-12-19T07:56:21.612Z,31.32
2018-12-19T07:56:59.602Z,31.30
2018-12-19T07:57:51.608Z,31.27
2018-12-19T07:58:30.426Z,31.26
2018-12-19T07:59:08.368Z,31.28
2018-12-19T07:59:50.752Z,31.28
2018-12-19T08:00:31.519Z,31.30
2018-12-19T08:01:09.330Z,31.32
2018-12-19T08:01:47.491Z,31.34
2018-12-19T08:02:29.642Z,31.36
2018-12-19T08:03:18.395Z,31.39
2018-12-19T08:03:57.286Z,31.42
2018-12-19T08:04:36.127Z,31.44
2018-12-19T08:05:18.930Z,31.45
2018-12-19T08:06:09.378Z,31.45
2018-12-19T08:06:47.574Z,31.49
2018-12-19T08:07:25.669Z,31.48
2018-12-19T08:08:03.719Z,31.50
2018-12-19T08:08:42.471Z,31.51
2018-12-19T08:09:20.461Z,31.51
2018-12-19T08:10:00.548Z,31.48
2018-12-19T08:10:38.398Z,31.51
2018-12-19T08:11:16.587Z,31.50
2018-12-19T08:11:57.445Z,31.52
2018-12-19T08:12:43.663Z,31.52
2018-12-19T08:13:22.508Z,31.53
2018-12-19T08:14:01.992Z,31.53
2018-12-19T08:14:42.928Z,31.52
2018-12-19T08:15:26.930Z,31.45
2018-12-19T08:16:04.598Z,31.53
2018-12-19T08:16:42.321Z,31.51
2018-12-19T08:17:28.941Z,31.52
2018-12-19T08:18:07.012Z,31.53
2018-12-19T08:18:45.402Z,31.54
2018-12-19T08:19:24.360Z,31.55
2018-12-19T08:20:03.271Z,31.54
2018-12-19T08:20:43.158Z,31.48
2018-12-19T08:21:28.105Z,31.52
2018-12-19T08:22:07.740Z,31.50
2018-12-19T08:22:45.611Z,31.43
2018-12-19T08:23:32.658Z,31.49
2018-12-19T08:24:15.855Z,31.49
2018-12-19T08:24:58.856Z,31.51
2018-12-19T08:25:36.945Z,31.50
2018-12-19T08:26:15.247Z,31.50
2018-12-19T08:26:55.180Z,31.53
2018-12-19T08:27:42.803Z,31.53
2018-12-19T08:28:23.760Z,31.51
2018-12-19T08:29:02.065Z,31.53
2018-12-19T08:29:39.877Z,31.53
2018-12-19T08:30:17.814Z,31.53
2018-12-19T08:31:04.327Z,31.51
2018-12-19T08:32:29.551Z,31.45
2018-12-19T08:33:07.710Z,31.47
2018-12-19T08:33:47.991Z,31.48
2018-12-19T08:34:27.489Z,31.44
2018-12-19T08:35:07.760Z,31.42
2018-12-19T08:35:47.300Z,31.48
2018-12-19T08:36:27.533Z,31.45
2018-12-19T08:37:06.265Z,31.42
2018-12-19T08:37:44.197Z,31.46
2018-12-19T08:38:21.964Z,31.42
2018-12-19T08:39:00.999Z,31.44
2018-12-19T08:39:41.264Z,31.44
2018-12-19T08:40:24.806Z,31.47
2018-12-19T08:41:02.745Z,31.42
2018-12-19T08:41:45.435Z,31.37
2018-12-19T08:42:23.144Z,31.41
2018-12-19T08:43:03.341Z,31.41
2018-12-19T08:43:49.073Z,31.44
2018-12-19T08:44:26.965Z,31.36
2018-12-19T08:45:11.932Z,31.34
2018-12-19T08:45:54.688Z,31.37
2018-12-19T08:46:32.785Z,31.37
2018-12-19T08:47:12.005Z,31.38
2018-12-19T08:47:51.743Z,31.37